sensor_id;sensor_type;location;lat;lon;timestamp;pressure;altitude;pressure_sealevel;temperature;humidity
38612;BME280;24368;52.156;20.788;2022-12-15T00:01:41;99218.53;;;-5.28;100.00
38612;BME280;24368;52.156;20.788;2022-12-15T00:07:01;99221.26;;;-5.34;100.00
38612;BME280;24368;52.156;20.788;2022-12-15T00:12:20;99215.05;;;-5.36;100.00
38612;BME280;24368;52.156;20.788;2022-12-15T00:17:40;99213.02;;;-5.34;100.00
38612;BME280;24368;52.156;20.788;2022-12-15T00:23:10;99213.36;;;-5.24;100.00
38612;BME280;24368;52.156;20.788;2022-12-15T00:28:30;99204.81;;;-5.12;100.00
38612;BME280;24368;52.156;20.788;2022-12-15T00:33:49;99202.50;;;-5.08;100.00
38612;BME280;24368;52.156;20.788;2022-12-15T00:39:09;99205.33;;;-5.09;100.00
38612;BME280;24368;52.156;20.788;2022-12-15T00:44:10;99214.16;;;-5.14;100.00
38612;BME280;24368;52.156;20.788;2022-12-15T00:49:11;99213.62;;;-5.16;100.00
38612;BME280;24368;52.156;20.788;2022-12-15T00:54:31;99203.32;;;-5.20;100.00
38612;BME280;24368;52.156;20.788;2022-12-15T00:59:50;99193.72;;;-5.20;100.00
38612;BME280;24368;52.156;20.788;2022-12-15T01:05:10;99187.31;;;-5.16;100.00
38612;BME280;24368;52.156;20.788;2022-12-15T01:10:30;99194.14;;;-5.09;100.00
38612;BME280;24368;52.156;20.788;2022-12-15T01:15:49;99188.56;;;-5.07;100.00
38612;BME280;24368;52.156;20.788;2022-12-15T01:21:11;99200.59;;;-5.10;100.00
38612;BME280;24368;52.156;20.788;2022-12-15T01:26:13;99207.82;;;-5.13;100.00
38612;BME280;24368;52.156;20.788;2022-12-15T01:31:14;99202.32;;;-5.17;100.00
38612;BME280;24368;52.156;20.788;2022-12-15T01:36:15;99196.80;;;-5.23;100.00
38612;BME280;24368;52.156;20.788;2022-12-15T01:41:16;99199.30;;;-5.25;100.00
38612;BME280;24368;52.156;20.788;2022-12-15T01:46:19;99204.91;;;-5.24;100.00
38612;BME280;24368;52.156;20.788;2022-12-15T01:51:26;99203.42;;;-5.25;100.00
38612;BME280;24368;52.156;20.788;2022-12-15T01:56:31;99197.89;;;-5.24;100.00
38612;BME280;24368;52.156;20.788;2022-12-15T02:01:33;99196.16;;;-5.17;100.00
38612;BME280;24368;52.156;20.788;2022-12-15T02:06:35;99191.52;;;-5.05;100.00
38612;BME280;24368;52.156;20.788;2022-12-15T02:16:59;99196.29;;;-4.92;100.00
38612;BME280;24368;52.156;20.788;2022-12-15T02:28:15;99206.58;;;-4.98;100.00
38612;BME280;24368;52.156;20.788;2022-12-15T02:33:26;99202.43;;;-5.03;100.00
38612;BME280;24368;52.156;20.788;2022-12-15T02:38:33;99201.50;;;-5.05;100.00
38612;BME280;24368;52.156;20.788;2022-12-15T02:43:36;99213.17;;;-5.08;100.00
38612;BME280;24368;52.156;20.788;2022-12-15T02:48:59;99219.58;;;-5.09;100.00
38612;BME280;24368;52.156;20.788;2022-12-15T02:59:31;99223.59;;;-4.91;100.00
38612;BME280;24368;52.156;20.788;2022-12-15T03:04:38;99223.73;;;-4.88;100.00
38612;BME280;24368;52.156;20.788;2022-12-15T03:09:40;99222.50;;;-4.97;100.00
38612;BME280;24368;52.156;20.788;2022-12-15T03:14:40;99222.21;;;-5.00;100.00
38612;BME280;24368;52.156;20.788;2022-12-15T03:19:41;99219.30;;;-5.10;100.00
38612;BME280;24368;52.156;20.788;2022-12-15T03:24:42;99222.53;;;-5.16;100.00
38612;BME280;24368;52.156;20.788;2022-12-15T03:29:43;99221.61;;;-5.22;100.00
38612;BME280;24368;52.156;20.788;2022-12-15T03:34:45;99229.98;;;-5.27;100.00
38612;BME280;24368;52.156;20.788;2022-12-15T03:39:46;99237.02;;;-5.27;100.00
38612;BME280;24368;52.156;20.788;2022-12-15T03:44:47;99243.64;;;-5.19;100.00
38612;BME280;24368;52.156;20.788;2022-12-15T03:49:48;99236.33;;;-5.14;100.00
38612;BME280;24368;52.156;20.788;2022-12-15T03:54:49;99243.92;;;-5.11;100.00
38612;BME280;24368;52.156;20.788;2022-12-15T03:59:50;99242.55;;;-5.12;100.00
38612;BME280;24368;52.156;20.788;2022-12-15T04:04:51;99247.90;;;-5.12;100.00
38612;BME280;24368;52.156;20.788;2022-12-15T04:09:52;99256.27;;;-5.18;100.00
38612;BME280;24368;52.156;20.788;2022-12-15T04:14:53;99261.73;;;-5.20;100.00
38612;BME280;24368;52.156;20.788;2022-12-15T04:19:54;99264.84;;;-5.11;100.00
38612;BME280;24368;52.156;20.788;2022-12-15T04:25:19;99274.64;;;-5.01;100.00
38612;BME280;24368;52.156;20.788;2022-12-15T04:30:43;99277.91;;;-4.99;100.00
38612;BME280;24368;52.156;20.788;2022-12-15T04:36:05;99277.33;;;-5.00;100.00
38612;BME280;24368;52.156;20.788;2022-12-15T04:41:25;99286.77;;;-5.06;100.00
38612;BME280;24368;52.156;20.788;2022-12-15T04:46:45;99295.05;;;-5.10;100.00
38612;BME280;24368;52.156;20.788;2022-12-15T04:52:04;99299.59;;;-5.19;100.00
38612;BME280;24368;52.156;20.788;2022-12-15T04:57:24;99304.61;;;-5.13;100.00
38612;BME280;24368;52.156;20.788;2022-12-15T05:02:44;99314.23;;;-5.06;100.00
38612;BME280;24368;52.156;20.788;2022-12-15T05:08:03;99324.52;;;-4.99;100.00
38612;BME280;24368;52.156;20.788;2022-12-15T05:13:23;99323.80;;;-4.99;100.00
38612;BME280;24368;52.156;20.788;2022-12-15T05:18:43;99332.23;;;-5.02;100.00
38612;BME280;24368;52.156;20.788;2022-12-15T05:24:03;99345.43;;;-5.08;100.00
38612;BME280;24368;52.156;20.788;2022-12-15T05:29:23;99356.20;;;-5.10;100.00
38612;BME280;24368;52.156;20.788;2022-12-15T05:34:43;99362.52;;;-5.07;100.00
38612;BME280;24368;52.156;20.788;2022-12-15T05:39:43;99360.07;;;-5.03;100.00
38612;BME280;24368;52.156;20.788;2022-12-15T05:44:44;99368.87;;;-5.03;100.00
38612;BME280;24368;52.156;20.788;2022-12-15T05:49:45;99384.11;;;-5.06;100.00
38612;BME280;24368;52.156;20.788;2022-12-15T05:54:46;99401.16;;;-5.17;100.00
38612;BME280;24368;52.156;20.788;2022-12-15T05:59:47;99410.31;;;-5.25;100.00
38612;BME280;24368;52.156;20.788;2022-12-15T06:04:48;99417.73;;;-5.22;100.00
38612;BME280;24368;52.156;20.788;2022-12-15T06:09:49;99428.50;;;-5.21;100.00
38612;BME280;24368;52.156;20.788;2022-12-15T06:14:50;99442.70;;;-5.13;100.00
38612;BME280;24368;52.156;20.788;2022-12-15T06:19:51;99454.26;;;-5.04;100.00
38612;BME280;24368;52.156;20.788;2022-12-15T06:24:52;99458.86;;;-5.07;100.00
38612;BME280;24368;52.156;20.788;2022-12-15T06:29:53;99470.13;;;-5.09;100.00
38612;BME280;24368;52.156;20.788;2022-12-15T06:34:54;99476.26;;;-5.11;100.00
38612;BME280;24368;52.156;20.788;2022-12-15T06:39:55;99483.59;;;-5.13;100.00
38612;BME280;24368;52.156;20.788;2022-12-15T06:44:56;99496.70;;;-5.15;100.00
38612;BME280;24368;52.156;20.788;2022-12-15T06:49:57;99506.21;;;-5.16;100.00
38612;BME280;24368;52.156;20.788;2022-12-15T06:54:58;99513.12;;;-5.13;100.00
38612;BME280;24368;52.156;20.788;2022-12-15T06:59:59;99523.85;;;-5.08;100.00
38612;BME280;24368;52.156;20.788;2022-12-15T07:05:00;99530.70;;;-5.04;100.00
38612;BME280;24368;52.156;20.788;2022-12-15T07:10:01;99535.55;;;-5.09;100.00
38612;BME280;24368;52.156;20.788;2022-12-15T07:15:02;99542.52;;;-5.10;100.00
38612;BME280;24368;52.156;20.788;2022-12-15T07:20:04;99552.11;;;-5.03;100.00
38612;BME280;24368;52.156;20.788;2022-12-15T07:25:06;99559.70;;;-5.00;100.00
38612;BME280;24368;52.156;20.788;2022-12-15T07:30:07;99563.92;;;-5.06;100.00
38612;BME280;24368;52.156;20.788;2022-12-15T07:35:09;99579.82;;;-5.04;100.00
38612;BME280;24368;52.156;20.788;2022-12-15T07:40:11;99588.75;;;-5.00;100.00
38612;BME280;24368;52.156;20.788;2022-12-15T07:45:13;99601.14;;;-4.87;100.00
38612;BME280;24368;52.156;20.788;2022-12-15T07:50:14;99611.20;;;-4.75;100.00
38612;BME280;24368;52.156;20.788;2022-12-15T07:55:15;99615.59;;;-4.74;100.00
38612;BME280;24368;52.156;20.788;2022-12-15T08:00:16;99619.58;;;-4.81;100.00
38612;BME280;24368;52.156;20.788;2022-12-15T08:05:19;99627.20;;;-4.86;100.00
38612;BME280;24368;52.156;20.788;2022-12-15T08:10:20;99634.36;;;-4.92;100.00
38612;BME280;24368;52.156;20.788;2022-12-15T08:15:21;99642.26;;;-4.88;100.00
38612;BME280;24368;52.156;20.788;2022-12-15T08:20:22;99649.50;;;-4.78;100.00
38612;BME280;24368;52.156;20.788;2022-12-15T08:25:24;99659.64;;;-4.82;100.00
38612;BME280;24368;52.156;20.788;2022-12-15T08:30:28;99662.35;;;-4.77;100.00
38612;BME280;24368;52.156;20.788;2022-12-15T08:35:29;99673.18;;;-4.85;100.00
38612;BME280;24368;52.156;20.788;2022-12-15T08:40:30;99684.64;;;-4.76;100.00
38612;BME280;24368;52.156;20.788;2022-12-15T08:45:31;99691.67;;;-4.87;100.00
38612;BME280;24368;52.156;20.788;2022-12-15T08:50:32;99693.67;;;-4.75;100.00
38612;BME280;24368;52.156;20.788;2022-12-15T08:55:33;99698.30;;;-4.89;100.00
38612;BME280;24368;52.156;20.788;2022-12-15T09:00:34;99702.42;;;-4.89;100.00
38612;BME280;24368;52.156;20.788;2022-12-15T09:05:36;99709.21;;;-4.91;100.00
38612;BME280;24368;52.156;20.788;2022-12-15T09:10:41;99715.95;;;-4.84;100.00
38612;BME280;24368;52.156;20.788;2022-12-15T09:15:42;99719.84;;;-4.72;100.00
38612;BME280;24368;52.156;20.788;2022-12-15T09:20:45;99719.73;;;-4.74;100.00
38612;BME280;24368;52.156;20.788;2022-12-15T09:25:46;99730.54;;;-4.73;100.00
38612;BME280;24368;52.156;20.788;2022-12-15T09:30:47;99741.70;;;-4.69;100.00
38612;BME280;24368;52.156;20.788;2022-12-15T09:35:49;99753.60;;;-4.81;100.00
38612;BME280;24368;52.156;20.788;2022-12-15T09:40:51;99751.91;;;-4.82;100.00
38612;BME280;24368;52.156;20.788;2022-12-15T09:46:00;99755.32;;;-4.81;100.00
38612;BME280;24368;52.156;20.788;2022-12-15T09:51:03;99751.88;;;-4.77;100.00
38612;BME280;24368;52.156;20.788;2022-12-15T09:56:17;99763.41;;;-4.74;100.00
38612;BME280;24368;52.156;20.788;2022-12-15T10:12:17;99779.10;;;-4.90;100.00
38612;BME280;24368;52.156;20.788;2022-12-15T10:17:28;99777.56;;;-4.87;100.00
38612;BME280;24368;52.156;20.788;2022-12-15T10:22:36;99782.05;;;-4.91;100.00
38612;BME280;24368;52.156;20.788;2022-12-15T10:33:17;99796.77;;;-4.82;100.00
38612;BME280;24368;52.156;20.788;2022-12-15T10:43:35;99813.68;;;-4.95;100.00
38612;BME280;24368;52.156;20.788;2022-12-15T10:48:36;99824.41;;;-5.01;100.00
38612;BME280;24368;52.156;20.788;2022-12-15T10:53:41;99823.48;;;-5.03;100.00
38612;BME280;24368;52.156;20.788;2022-12-15T10:58:51;99827.63;;;-5.19;100.00
38612;BME280;24368;52.156;20.788;2022-12-15T11:03:54;99833.09;;;-5.18;100.00
38612;BME280;24368;52.156;20.788;2022-12-15T11:14:26;99838.17;;;-5.13;100.00
38612;BME280;24368;52.156;20.788;2022-12-15T11:19:49;99843.60;;;-5.11;100.00
38612;BME280;24368;52.156;20.788;2022-12-15T11:24:57;99847.13;;;-5.05;100.00
38612;BME280;24368;52.156;20.788;2022-12-15T11:35:11;99863.96;;;-5.05;100.00
38612;BME280;24368;52.156;20.788;2022-12-15T11:40:28;99876.59;;;-4.92;100.00
38612;BME280;24368;52.156;20.788;2022-12-15T11:51:04;99875.30;;;-4.90;100.00
38612;BME280;24368;52.156;20.788;2022-12-15T12:02:01;99884.00;;;-4.65;100.00
38612;BME280;24368;52.156;20.788;2022-12-15T12:17:52;99912.05;;;-4.70;100.00
38612;BME280;24368;52.156;20.788;2022-12-15T12:23:04;99918.39;;;-4.70;100.00
38612;BME280;24368;52.156;20.788;2022-12-15T12:28:16;99929.28;;;-4.63;100.00
38612;BME280;24368;52.156;20.788;2022-12-15T12:33:41;99933.06;;;-4.59;100.00
38612;BME280;24368;52.156;20.788;2022-12-15T12:38:48;99941.08;;;-4.61;100.00
38612;BME280;24368;52.156;20.788;2022-12-15T12:43:56;99942.14;;;-4.74;100.00
38612;BME280;24368;52.156;20.788;2022-12-15T12:49:27;99948.06;;;-4.76;100.00
38612;BME280;24368;52.156;20.788;2022-12-15T12:59:41;99964.81;;;-4.98;100.00
38612;BME280;24368;52.156;20.788;2022-12-15T13:04:50;99972.35;;;-5.01;100.00
38612;BME280;24368;52.156;20.788;2022-12-15T13:10:15;99980.79;;;-5.10;100.00
38612;BME280;24368;52.156;20.788;2022-12-15T13:20:29;99992.15;;;-5.23;100.00
38612;BME280;24368;52.156;20.788;2022-12-15T13:25:40;99988.60;;;-5.33;100.00
38612;BME280;24368;52.156;20.788;2022-12-15T13:36:11;100014.59;;;-5.43;100.00
38612;BME280;24368;52.156;20.788;2022-12-15T13:41:32;100027.35;;;-5.49;100.00
38612;BME280;24368;52.156;20.788;2022-12-15T13:46:34;100030.75;;;-5.43;100.00
38612;BME280;24368;52.156;20.788;2022-12-15T13:51:43;100038.56;;;-5.50;100.00
38612;BME280;24368;52.156;20.788;2022-12-15T14:02:29;100057.11;;;-5.41;100.00
38612;BME280;24368;52.156;20.788;2022-12-15T14:07:33;100051.39;;;-5.44;100.00
38612;BME280;24368;52.156;20.788;2022-12-15T14:12:38;100045.20;;;-5.44;100.00
38612;BME280;24368;52.156;20.788;2022-12-15T14:17:39;100043.61;;;-5.47;100.00
38612;BME280;24368;52.156;20.788;2022-12-15T14:22:40;100046.35;;;-5.47;100.00
38612;BME280;24368;52.156;20.788;2022-12-15T14:27:44;100044.11;;;-5.47;100.00
38612;BME280;24368;52.156;20.788;2022-12-15T14:32:49;100045.11;;;-5.51;100.00
38612;BME280;24368;52.156;20.788;2022-12-15T14:37:54;100043.17;;;-5.41;100.00
38612;BME280;24368;52.156;20.788;2022-12-15T14:42:56;100045.96;;;-5.46;100.00
38612;BME280;24368;52.156;20.788;2022-12-15T14:48:08;100054.63;;;-5.43;100.00
38612;BME280;24368;52.156;20.788;2022-12-15T14:53:15;100057.95;;;-5.41;100.00
38612;BME280;24368;52.156;20.788;2022-12-15T15:03:36;100066.11;;;-5.35;100.00
38612;BME280;24368;52.156;20.788;2022-12-15T15:08:49;100074.89;;;-5.35;100.00
38612;BME280;24368;52.156;20.788;2022-12-15T15:14:13;100073.09;;;-5.29;100.00
38612;BME280;24368;52.156;20.788;2022-12-15T15:19:19;100082.48;;;-5.19;100.00
38612;BME280;24368;52.156;20.788;2022-12-15T15:24:24;100092.67;;;-5.12;100.00
38612;BME280;24368;52.156;20.788;2022-12-15T15:29:32;100086.34;;;-5.25;100.00
38612;BME280;24368;52.156;20.788;2022-12-15T15:34:36;100094.77;;;-5.21;100.00
38612;BME280;24368;52.156;20.788;2022-12-15T15:39:37;100103.05;;;-5.18;100.00
38612;BME280;24368;52.156;20.788;2022-12-15T15:44:39;100104.08;;;-5.13;100.00
38612;BME280;24368;52.156;20.788;2022-12-15T15:49:40;100108.27;;;-5.06;100.00
38612;BME280;24368;52.156;20.788;2022-12-15T15:54:42;100115.85;;;-5.07;100.00
38612;BME280;24368;52.156;20.788;2022-12-15T15:59:44;100125.34;;;-5.04;100.00
38612;BME280;24368;52.156;20.788;2022-12-15T16:04:46;100128.78;;;-5.04;100.00
38612;BME280;24368;52.156;20.788;2022-12-15T16:09:47;100136.91;;;-5.09;100.00
38612;BME280;24368;52.156;20.788;2022-12-15T16:14:49;100151.57;;;-5.02;100.00
38612;BME280;24368;52.156;20.788;2022-12-15T16:19:50;100164.36;;;-5.00;100.00
38612;BME280;24368;52.156;20.788;2022-12-15T16:24:51;100172.18;;;-4.89;100.00
38612;BME280;24368;52.156;20.788;2022-12-15T16:29:52;100177.53;;;-4.81;100.00
38612;BME280;24368;52.156;20.788;2022-12-15T16:34:53;100187.45;;;-4.80;100.00
38612;BME280;24368;52.156;20.788;2022-12-15T16:39:54;100193.79;;;-4.84;100.00
38612;BME280;24368;52.156;20.788;2022-12-15T16:44:55;100198.77;;;-4.84;100.00
38612;BME280;24368;52.156;20.788;2022-12-15T16:49:56;100208.48;;;-4.86;100.00
38612;BME280;24368;52.156;20.788;2022-12-15T16:54:57;100201.02;;;-4.84;100.00
38612;BME280;24368;52.156;20.788;2022-12-15T16:59:58;100203.92;;;-4.79;100.00
38612;BME280;24368;52.156;20.788;2022-12-15T17:05:01;100205.73;;;-4.69;100.00
38612;BME280;24368;52.156;20.788;2022-12-15T17:10:02;100218.12;;;-4.64;100.00
38612;BME280;24368;52.156;20.788;2022-12-15T17:15:14;100224.98;;;-4.64;100.00
38612;BME280;24368;52.156;20.788;2022-12-15T17:20:17;100228.40;;;-4.64;100.00
38612;BME280;24368;52.156;20.788;2022-12-15T17:25:31;100229.18;;;-4.66;100.00
38612;BME280;24368;52.156;20.788;2022-12-15T17:30:35;100218.64;;;-4.69;100.00
38612;BME280;24368;52.156;20.788;2022-12-15T17:35:36;100215.23;;;-4.74;100.00
38612;BME280;24368;52.156;20.788;2022-12-15T17:40:38;100211.32;;;-4.75;100.00
38612;BME280;24368;52.156;20.788;2022-12-15T17:45:40;100210.97;;;-4.75;100.00
38612;BME280;24368;52.156;20.788;2022-12-15T17:50:42;100211.49;;;-4.75;100.00
38612;BME280;24368;52.156;20.788;2022-12-15T17:55:50;100214.35;;;-4.74;100.00
38612;BME280;24368;52.156;20.788;2022-12-15T18:00:53;100217.10;;;-4.65;100.00
38612;BME280;24368;52.156;20.788;2022-12-15T18:05:56;100211.98;;;-4.57;100.00
38612;BME280;24368;52.156;20.788;2022-12-15T18:10:57;100216.77;;;-4.52;100.00
38612;BME280;24368;52.156;20.788;2022-12-15T18:15:59;100215.69;;;-4.47;100.00
38612;BME280;24368;52.156;20.788;2022-12-15T18:21:13;100217.79;;;-4.44;100.00
38612;BME280;24368;52.156;20.788;2022-12-15T18:26:15;100224.42;;;-4.42;100.00
38612;BME280;24368;52.156;20.788;2022-12-15T18:31:23;100227.11;;;-4.44;100.00
38612;BME280;24368;52.156;20.788;2022-12-15T18:36:27;100236.65;;;-4.55;100.00
38612;BME280;24368;52.156;20.788;2022-12-15T18:41:28;100238.24;;;-4.60;100.00
38612;BME280;24368;52.156;20.788;2022-12-15T18:46:29;100239.05;;;-4.63;100.00
38612;BME280;24368;52.156;20.788;2022-12-15T18:51:31;100239.99;;;-4.61;100.00
38612;BME280;24368;52.156;20.788;2022-12-15T18:56:32;100238.81;;;-4.53;100.00
38612;BME280;24368;52.156;20.788;2022-12-15T19:01:33;100242.53;;;-4.43;100.00
38612;BME280;24368;52.156;20.788;2022-12-15T19:06:34;100255.38;;;-4.33;100.00
38612;BME280;24368;52.156;20.788;2022-12-15T19:11:36;100266.45;;;-4.34;100.00
38612;BME280;24368;52.156;20.788;2022-12-15T19:16:37;100271.16;;;-4.41;100.00
38612;BME280;24368;52.156;20.788;2022-12-15T19:21:57;100271.69;;;-4.46;100.00
38612;BME280;24368;52.156;20.788;2022-12-15T19:27:19;100271.20;;;-4.46;100.00
38612;BME280;24368;52.156;20.788;2022-12-15T19:32:21;100270.16;;;-4.50;100.00
38612;BME280;24368;52.156;20.788;2022-12-15T19:37:25;100266.20;;;-4.50;100.00
38612;BME280;24368;52.156;20.788;2022-12-15T19:42:36;100271.70;;;-4.50;100.00
38612;BME280;24368;52.156;20.788;2022-12-15T19:47:37;100264.64;;;-4.46;100.00
38612;BME280;24368;52.156;20.788;2022-12-15T19:52:40;100259.27;;;-4.40;100.00
38612;BME280;24368;52.156;20.788;2022-12-15T19:57:42;100254.30;;;-4.28;100.00
38612;BME280;24368;52.156;20.788;2022-12-15T20:02:43;100260.33;;;-4.16;100.00
38612;BME280;24368;52.156;20.788;2022-12-15T20:07:46;100251.31;;;-4.18;100.00
38612;BME280;24368;52.156;20.788;2022-12-15T20:12:48;100257.17;;;-4.31;100.00
38612;BME280;24368;52.156;20.788;2022-12-15T20:17:49;100257.93;;;-4.45;100.00
38612;BME280;24368;52.156;20.788;2022-12-15T20:22:58;100264.75;;;-4.66;100.00
38612;BME280;24368;52.156;20.788;2022-12-15T20:28:01;100265.83;;;-4.89;100.00
38612;BME280;24368;52.156;20.788;2022-12-15T20:33:04;100262.66;;;-5.01;100.00
38612;BME280;24368;52.156;20.788;2022-12-15T20:43:28;100269.05;;;-5.34;100.00
38612;BME280;24368;52.156;20.788;2022-12-15T20:48:34;100275.23;;;-5.48;100.00
38612;BME280;24368;52.156;20.788;2022-12-15T20:53:36;100263.62;;;-5.50;100.00
38612;BME280;24368;52.156;20.788;2022-12-15T20:58:39;100262.73;;;-5.49;100.00
38612;BME280;24368;52.156;20.788;2022-12-15T21:03:40;100274.30;;;-5.51;100.00
38612;BME280;24368;52.156;20.788;2022-12-15T21:08:43;100273.67;;;-5.67;100.00
38612;BME280;24368;52.156;20.788;2022-12-15T21:13:46;100277.55;;;-5.81;100.00
38612;BME280;24368;52.156;20.788;2022-12-15T21:18:48;100279.49;;;-5.92;100.00
38612;BME280;24368;52.156;20.788;2022-12-15T21:23:49;100279.98;;;-6.00;100.00
38612;BME280;24368;52.156;20.788;2022-12-15T21:28:56;100277.84;;;-6.03;100.00
38612;BME280;24368;52.156;20.788;2022-12-15T21:33:59;100279.36;;;-6.18;100.00
38612;BME280;24368;52.156;20.788;2022-12-15T21:39:00;100282.13;;;-6.24;100.00
38612;BME280;24368;52.156;20.788;2022-12-15T21:44:01;100282.56;;;-6.22;100.00
38612;BME280;24368;52.156;20.788;2022-12-15T21:49:02;100284.64;;;-6.23;100.00
38612;BME280;24368;52.156;20.788;2022-12-15T21:54:21;100289.27;;;-6.27;100.00
38612;BME280;24368;52.156;20.788;2022-12-15T21:59:24;100284.84;;;-6.24;100.00
38612;BME280;24368;52.156;20.788;2022-12-15T22:04:34;100273.27;;;-6.00;100.00
38612;BME280;24368;52.156;20.788;2022-12-15T22:09:35;100262.42;;;-5.94;100.00
38612;BME280;24368;52.156;20.788;2022-12-15T22:14:36;100265.83;;;-5.93;100.00
38612;BME280;24368;52.156;20.788;2022-12-15T22:19:37;100275.95;;;-5.89;100.00
38612;BME280;24368;52.156;20.788;2022-12-15T22:24:38;100283.34;;;-5.79;100.00
38612;BME280;24368;52.156;20.788;2022-12-15T22:29:39;100286.54;;;-5.82;100.00
38612;BME280;24368;52.156;20.788;2022-12-15T22:34:41;100293.12;;;-5.69;100.00
38612;BME280;24368;52.156;20.788;2022-12-15T22:39:42;100303.41;;;-5.64;100.00
38612;BME280;24368;52.156;20.788;2022-12-15T22:44:43;100307.83;;;-5.62;100.00
38612;BME280;24368;52.156;20.788;2022-12-15T22:49:45;100314.85;;;-5.68;100.00
38612;BME280;24368;52.156;20.788;2022-12-15T22:54:46;100313.67;;;-5.68;100.00
38612;BME280;24368;52.156;20.788;2022-12-15T23:00:09;100306.00;;;-5.64;100.00
38612;BME280;24368;52.156;20.788;2022-12-15T23:05:12;100305.28;;;-5.59;100.00
38612;BME280;24368;52.156;20.788;2022-12-15T23:10:16;100301.20;;;-5.59;100.00
38612;BME280;24368;52.156;20.788;2022-12-15T23:15:36;100295.08;;;-5.61;100.00
38612;BME280;24368;52.156;20.788;2022-12-15T23:20:56;100302.33;;;-5.68;100.00
38612;BME280;24368;52.156;20.788;2022-12-15T23:25:57;100305.52;;;-5.76;100.00
38612;BME280;24368;52.156;20.788;2022-12-15T23:30:59;100298.54;;;-5.78;100.00
38612;BME280;24368;52.156;20.788;2022-12-15T23:36:00;100307.14;;;-5.68;100.00
38612;BME280;24368;52.156;20.788;2022-12-15T23:41:01;100310.38;;;-5.62;100.00
38612;BME280;24368;52.156;20.788;2022-12-15T23:46:04;100303.52;;;-5.62;100.00
38612;BME280;24368;52.156;20.788;2022-12-15T23:51:07;100307.31;;;-5.58;100.00
38612;BME280;24368;52.156;20.788;2022-12-15T23:56:13;100311.27;;;-5.53;100.00
